Big Rapids, Michigan
Current Conditions -  °F | °C
As of 1:34 PM on Tuesday 27 Jan 2015 (Local Time) from KRQB Reporting Station
Clear Clear  
Wind Chill: -8°   Ceiling: Unl
Heat Index: -4°   Visibility: 10mi
Dew Point: -13°   Wind: 6mph
Humidity: 51%   Direction: 360°N
Pressure: 30.14"   Gusts: NA
Location:  43.7°N, 85.48°W
Report Text: KRQB 271834Z AUTO 36005KT 10SM CLR M04/M13 A3014 RMK AO2 T10401127
Loading
Personal Weather Stations






























Interactive Weather Map New forecast layout! Learn more

10-Day Weather Forecast

Advertisements
Track Severe Weather on mobile